createdAt,value
2023-05-14T00:00:38.941Z,6.50
2023-05-14T00:03:05.390Z,6.40
2023-05-14T00:05:31.671Z,6.40
2023-05-14T00:07:57.807Z,6.30
2023-05-14T00:10:24.176Z,6.20
2023-05-14T00:12:51.188Z,6.20
2023-05-14T00:15:17.597Z,6.20
2023-05-14T00:17:44.001Z,6.20
2023-05-14T00:20:11.602Z,6.20
2023-05-14T00:22:38.801Z,6.30
2023-05-14T00:25:06.606Z,6.30
2023-05-14T00:27:33.336Z,6.40
2023-05-14T00:29:59.482Z,6.50
2023-05-14T00:32:25.793Z,6.60
2023-05-14T00:34:52.129Z,6.70
2023-05-14T00:37:18.276Z,6.80
2023-05-14T00:39:44.504Z,6.80
2023-05-14T00:42:10.651Z,6.90
2023-05-14T00:44:36.950Z,7.00
2023-05-14T00:47:03.289Z,7.00
2023-05-14T00:49:30.035Z,7.10
2023-05-14T00:51:58.256Z,7.30
2023-05-14T00:54:24.399Z,7.40
2023-05-14T00:56:50.545Z,7.50
2023-05-14T00:59:16.717Z,7.60
2023-05-14T01:01:42.839Z,7.70
2023-05-14T01:04:09.077Z,7.80
2023-05-14T01:10:05.363Z,7.80
2023-05-14T01:12:50.288Z,10.20
2023-05-14T01:15:23.259Z,8.00
2023-05-14T01:18:11.035Z,8.00
2023-05-14T01:20:37.282Z,8.10
2023-05-14T01:23:03.584Z,8.10
2023-05-14T01:25:30.294Z,8.20
2023-05-14T01:28:14.096Z,8.20
2023-05-14T01:31:42.621Z,8.20
2023-05-14T01:34:08.778Z,8.30
2023-05-14T01:36:35.042Z,8.40
2023-05-14T01:39:01.556Z,8.40
2023-05-14T01:41:27.732Z,8.40
2023-05-14T01:43:54.018Z,8.30
2023-05-14T01:46:20.353Z,8.30
2023-05-14T01:48:46.610Z,8.20
2023-05-14T01:51:14.103Z,8.20
2023-05-14T01:53:40.584Z,8.10
2023-05-14T01:56:07.100Z,8.10
2023-05-14T01:58:33.327Z,8.10
2023-05-14T02:00:59.522Z,8.00
2023-05-14T02:03:25.806Z,8.00
2023-05-14T02:05:51.993Z,8.00
2023-05-14T02:08:18.126Z,7.90
2023-05-14T02:10:44.291Z,7.70
2023-05-14T02:13:10.412Z,6.10
2023-05-14T02:15:38.012Z,7.50
2023-05-14T02:18:04.260Z,7.30
2023-05-14T02:20:30.596Z,7.20
2023-05-14T02:22:56.723Z,7.20
2023-05-14T02:25:22.883Z,7.00
2023-05-14T02:27:49.096Z,6.90
2023-05-14T02:30:15.595Z,6.90
2023-05-14T02:32:41.919Z,7.00
2023-05-14T02:35:08.971Z,7.10
2023-05-14T02:37:35.109Z,7.20
2023-05-14T02:40:01.347Z,7.30
2023-05-14T02:42:27.525Z,7.30
2023-05-14T02:44:54.002Z,7.30
2023-05-14T02:47:20.197Z,7.40
2023-05-14T02:49:46.552Z,7.50
2023-05-14T02:52:12.693Z,7.50
2023-05-14T02:54:38.836Z,7.50
2023-05-14T02:57:05.211Z,7.50
2023-05-14T02:59:31.439Z,7.50
2023-05-14T03:01:58.426Z,7.40
2023-05-14T03:04:25.247Z,7.50
2023-05-14T03:06:51.441Z,7.40
2023-05-14T03:09:17.652Z,7.30
2023-05-14T03:11:43.793Z,7.30
2023-05-14T03:14:09.985Z,7.30
2023-05-14T03:16:36.376Z,7.20
2023-05-14T03:19:03.203Z,7.10
2023-05-14T03:21:29.483Z,7.10
2023-05-14T03:23:56.003Z,7.20
2023-05-14T03:26:22.198Z,7.40
2023-05-14T03:28:48.450Z,7.70
2023-05-14T03:31:14.830Z,7.70
2023-05-14T03:33:41.074Z,7.70
2023-05-14T03:36:07.552Z,7.60
2023-05-14T03:38:33.682Z,7.70
2023-05-14T03:40:59.894Z,7.80
2023-05-14T03:43:26.109Z,8.20
2023-05-14T03:45:52.527Z,8.80
2023-05-14T03:48:19.488Z,9.50
2023-05-14T03:50:45.937Z,10.70
2023-05-14T03:53:12.060Z,11.40
2023-05-14T03:55:38.207Z,11.50
2023-05-14T03:58:10.210Z,11.90
2023-05-14T04:00:36.531Z,13.00
2023-05-14T04:03:02.921Z,13.90
2023-05-14T04:05:29.332Z,14.70
2023-05-14T04:07:57.470Z,14.60
2023-05-14T04:10:23.995Z,15.10
2023-05-14T04:12:51.459Z,15.40
2023-05-14T04:15:18.234Z,15.50
2023-05-14T04:17:44.478Z,15.70
2023-05-14T04:20:11.104Z,15.90
2023-05-14T04:22:37.273Z,16.00
2023-05-14T04:25:04.065Z,15.10
2023-05-14T04:27:30.275Z,15.40
2023-05-14T04:29:56.454Z,15.30
2023-05-14T04:32:22.794Z,15.30
2023-05-14T04:34:49.096Z,14.70
2023-05-14T04:37:15.365Z,14.10
2023-05-14T04:39:41.938Z,13.80
2023-05-14T04:42:08.111Z,13.10
2023-05-14T04:44:35.534Z,13.10
2023-05-14T04:47:02.298Z,12.60
2023-05-14T04:49:28.899Z,12.60
2023-05-14T04:51:55.106Z,12.40
2023-05-14T04:54:21.272Z,12.20
2023-05-14T04:56:47.486Z,12.20
2023-05-14T04:59:13.701Z,12.10
2023-05-14T05:01:39.961Z,12.30
2023-05-14T05:04:06.297Z,12.50
2023-05-14T05:06:32.816Z,12.30
2023-05-14T05:09:00.603Z,12.50
2023-05-14T05:11:28.283Z,12.50
2023-05-14T05:13:54.481Z,12.60
2023-05-14T05:16:20.689Z,12.90
2023-05-14T05:18:47.026Z,12.90
2023-05-14T05:21:13.303Z,12.80
2023-05-14T05:23:39.610Z,12.80
2023-05-14T05:26:05.893Z,12.90
2023-05-14T05:28:32.087Z,12.80
2023-05-14T05:30:58.496Z,12.90
2023-05-14T05:33:24.830Z,12.90
2023-05-14T05:35:51.874Z,12.90
2023-05-14T05:38:18.028Z,12.80
2023-05-14T05:40:44.195Z,13.10
2023-05-14T05:43:10.426Z,13.30
2023-05-14T05:45:36.585Z,13.70
2023-05-14T05:48:02.983Z,13.80
2023-05-14T05:50:31.027Z,14.20
2023-05-14T05:52:58.659Z,14.60
2023-05-14T05:55:25.250Z,14.80
2023-05-14T05:57:51.660Z,15.10
2023-05-14T06:00:18.610Z,15.20
2023-05-14T06:02:45.961Z,15.40
2023-05-14T06:05:12.247Z,15.40
2023-05-14T06:07:38.842Z,15.20
2023-05-14T06:10:06.326Z,15.50
2023-05-14T06:12:32.744Z,15.90
2023-05-14T06:14:59.149Z,15.90
2023-05-14T06:17:25.633Z,15.80
2023-05-14T06:19:52.015Z,15.70
2023-05-14T06:22:18.462Z,16.40
2023-05-14T06:24:44.948Z,16.50
2023-05-14T06:27:11.151Z,16.70
2023-05-14T06:29:38.151Z,16.70
2023-05-14T06:32:05.430Z,16.70
2023-05-14T06:34:33.361Z,16.90
2023-05-14T06:37:02.407Z,16.90
2023-05-14T06:39:28.690Z,17.50
2023-05-14T06:41:54.827Z,18.10
2023-05-14T06:44:21.025Z,18.20
2023-05-14T06:46:47.271Z,18.70
2023-05-14T06:49:13.532Z,18.50
2023-05-14T06:51:40.261Z,18.50
2023-05-14T06:54:06.411Z,19.20
2023-05-14T06:56:32.790Z,20.10
2023-05-14T06:58:59.001Z,20.60
2023-05-14T07:01:25.265Z,20.20
2023-05-14T07:03:51.487Z,20.80
2023-05-14T07:06:17.724Z,21.50
2023-05-14T07:08:46.552Z,22.40
2023-05-14T07:11:12.796Z,22.90
2023-05-14T07:13:39.611Z,20.70
2023-05-14T07:16:08.316Z,20.60
2023-05-14T07:18:34.494Z,20.60
2023-05-14T07:21:00.767Z,20.40
2023-05-14T07:23:26.949Z,21.30
2023-05-14T07:25:53.266Z,21.50
2023-05-14T07:28:19.481Z,22.90
2023-05-14T07:30:45.753Z,23.70
2023-05-14T07:33:11.991Z,23.00
2023-05-14T07:35:38.501Z,22.20
2023-05-14T07:38:05.605Z,21.70
2023-05-14T07:40:31.848Z,21.90
2023-05-14T07:42:58.086Z,22.20
2023-05-14T07:45:24.421Z,22.40
2023-05-14T07:47:51.366Z,22.60
2023-05-14T07:50:18.349Z,22.80
2023-05-14T07:52:45.489Z,22.10
2023-05-14T07:55:12.062Z,21.80
2023-05-14T07:57:38.907Z,22.20
2023-05-14T08:00:09.090Z,22.40
2023-05-14T08:02:35.351Z,22.50
2023-05-14T08:05:01.700Z,23.50
2023-05-14T08:07:29.431Z,23.20
2023-05-14T08:09:56.021Z,23.50
2023-05-14T08:12:22.490Z,24.10
2023-05-14T08:14:48.717Z,24.30
2023-05-14T08:17:15.221Z,23.70
2023-05-14T08:19:42.140Z,23.40
2023-05-14T08:22:09.788Z,23.20
2023-05-14T08:24:36.415Z,23.40
2023-05-14T08:27:02.718Z,24.50
2023-05-14T08:29:29.201Z,24.30
2023-05-14T08:31:55.797Z,24.20
2023-05-14T08:34:22.095Z,23.70
2023-05-14T08:36:48.257Z,23.10
2023-05-14T08:39:14.461Z,23.10
2023-05-14T08:41:40.848Z,24.10
2023-05-14T08:44:11.718Z,24.80
2023-05-14T08:46:38.523Z,24.00
2023-05-14T08:50:43.617Z,24.40
2023-05-14T08:53:09.876Z,24.00
2023-05-14T08:55:36.085Z,24.80
2023-05-14T08:58:02.278Z,25.40
2023-05-14T09:00:28.803Z,25.40
2023-05-14T09:02:55.065Z,24.20
2023-05-14T09:05:21.563Z,25.20
2023-05-14T09:07:48.213Z,24.70
2023-05-14T09:10:15.254Z,24.80
2023-05-14T09:12:41.474Z,25.70
2023-05-14T09:15:08.206Z,26.50
2023-05-14T09:17:34.452Z,26.70
2023-05-14T09:20:00.752Z,26.50
2023-05-14T09:22:29.563Z,25.80
2023-05-14T09:25:05.950Z,25.50
2023-05-14T09:27:32.752Z,25.60
2023-05-14T09:30:06.636Z,26.10
2023-05-14T09:32:37.350Z,25.70
2023-05-14T09:35:18.048Z,25.40
2023-05-14T09:37:51.722Z,26.30
2023-05-14T09:40:22.279Z,24.90
2023-05-14T09:42:48.794Z,24.80
2023-05-14T09:45:15.614Z,24.70
2023-05-14T09:47:41.879Z,23.90
2023-05-14T09:50:08.799Z,25.10
2023-05-14T09:52:35.032Z,23.40
2023-05-14T09:55:01.355Z,22.90
2023-05-14T09:57:27.730Z,23.50
2023-05-14T09:59:53.897Z,23.20
2023-05-14T10:02:30.576Z,24.30
2023-05-14T10:04:59.602Z,24.70
2023-05-14T10:07:28.843Z,24.80
2023-05-14T10:09:59.575Z,24.80
2023-05-14T10:12:26.387Z,23.10
2023-05-14T10:14:55.203Z,23.10
2023-05-14T10:17:21.469Z,24.30
2023-05-14T10:19:53.340Z,25.20
2023-05-14T10:22:24.772Z,26.20
2023-05-14T10:24:51.910Z,27.10
2023-05-14T10:27:22.374Z,25.60
2023-05-14T10:29:55.149Z,24.50
2023-05-14T10:32:23.796Z,23.10
2023-05-14T10:34:50.023Z,22.20
2023-05-14T10:37:21.856Z,22.00
2023-05-14T10:40:09.386Z,23.20
2023-05-14T10:42:42.639Z,24.20
2023-05-14T10:45:13.219Z,24.60
2023-05-14T10:47:41.574Z,25.20
2023-05-14T10:50:09.685Z,25.80
2023-05-14T10:52:36.057Z,26.50
2023-05-14T10:55:06.196Z,27.10
2023-05-14T10:57:33.224Z,26.80
2023-05-14T10:59:59.966Z,26.20
2023-05-14T11:02:33.342Z,25.90
2023-05-14T11:05:03.933Z,25.30
2023-05-14T11:07:31.849Z,24.50
2023-05-14T11:10:00.380Z,22.80
2023-05-14T11:12:27.304Z,22.90
2023-05-14T11:14:55.967Z,24.20
2023-05-14T11:17:22.286Z,24.90
2023-05-14T11:19:50.977Z,24.80
2023-05-14T11:22:17.517Z,25.10
2023-05-14T11:24:43.708Z,24.10
2023-05-14T11:27:10.516Z,24.50
2023-05-14T11:29:37.222Z,25.70
2023-05-14T11:32:07.001Z,25.60
2023-05-14T11:34:36.667Z,24.20
2023-05-14T11:37:04.388Z,23.00
2023-05-14T11:39:32.355Z,22.70
2023-05-14T11:42:20.499Z,22.50
2023-05-14T11:44:48.362Z,22.50
2023-05-14T11:47:15.123Z,23.30
2023-05-14T11:49:41.351Z,23.10
2023-05-14T11:52:11.667Z,23.20
2023-05-14T11:54:38.003Z,22.90
2023-05-14T11:57:22.861Z,22.10
2023-05-14T11:59:55.409Z,21.80
2023-05-14T12:02:22.326Z,21.80
2023-05-14T12:04:52.744Z,21.80
2023-05-14T12:07:19.244Z,21.90
2023-05-14T12:09:50.181Z,21.80
2023-05-14T12:12:22.372Z,22.40
2023-05-14T12:14:49.522Z,23.20
2023-05-14T12:17:20.322Z,23.60
2023-05-14T12:19:49.270Z,23.60
2023-05-14T12:22:19.984Z,24.30
2023-05-14T12:24:56.784Z,24.20
2023-05-14T12:27:27.178Z,23.20
2023-05-14T12:30:19.794Z,22.90
2023-05-14T12:32:50.645Z,22.20
2023-05-14T12:35:17.254Z,21.20
2023-05-14T12:37:43.523Z,20.80
2023-05-14T12:40:10.922Z,20.50
2023-05-14T12:42:37.171Z,20.30
2023-05-14T12:45:07.254Z,21.00
2023-05-14T12:47:34.609Z,21.50
2023-05-14T12:50:01.063Z,21.80
2023-05-14T12:52:37.971Z,21.60
2023-05-14T12:55:06.804Z,21.50
2023-05-14T12:57:34.866Z,22.10
2023-05-14T13:00:07.500Z,23.10
2023-05-14T13:02:34.282Z,23.80
2023-05-14T13:05:10.011Z,24.10
2023-05-14T13:07:36.636Z,24.80
2023-05-14T13:10:05.182Z,24.80
2023-05-14T13:12:31.753Z,24.80
2023-05-14T13:14:57.998Z,24.50
2023-05-14T13:17:24.255Z,23.70
2023-05-14T13:19:50.476Z,23.10
2023-05-14T13:22:18.298Z,23.10
2023-05-14T13:24:44.945Z,22.80
2023-05-14T13:27:11.164Z,22.90
2023-05-14T13:29:37.383Z,23.50
2023-05-14T13:32:04.447Z,23.30
2023-05-14T13:34:30.668Z,23.40
2023-05-14T13:36:56.921Z,23.70
2023-05-14T13:39:26.389Z,24.60
2023-05-14T13:41:55.195Z,24.20
2023-05-14T13:44:21.552Z,24.30
2023-05-14T13:46:48.481Z,24.30
2023-05-14T13:49:14.944Z,24.00
2023-05-14T13:51:41.172Z,24.50
2023-05-14T13:54:07.592Z,24.40
2023-05-14T13:56:33.836Z,24.30
2023-05-14T13:59:00.064Z,24.40
2023-05-14T14:01:26.666Z,24.60
2023-05-14T14:03:52.947Z,24.80
2023-05-14T14:06:19.727Z,24.00
2023-05-14T14:08:45.890Z,23.80
2023-05-14T14:11:12.967Z,23.60
2023-05-14T14:13:39.648Z,23.10
2023-05-14T14:16:06.412Z,22.50
2023-05-14T14:18:33.355Z,22.20
2023-05-14T14:20:59.933Z,22.20
2023-05-14T14:23:26.807Z,22.00
2023-05-14T14:25:53.321Z,21.80
2023-05-14T14:28:19.551Z,22.00
2023-05-14T14:30:45.800Z,22.00
2023-05-14T14:33:11.981Z,22.00
2023-05-14T14:35:38.405Z,22.00
2023-05-14T14:38:04.733Z,22.10
2023-05-14T14:40:33.233Z,22.20
2023-05-14T14:42:59.891Z,22.00
2023-05-14T14:45:26.369Z,22.10
2023-05-14T14:48:33.585Z,21.90
2023-05-14T14:51:00.828Z,21.80
2023-05-14T14:53:26.998Z,21.90
2023-05-14T14:55:53.336Z,22.00
2023-05-14T14:58:20.237Z,21.80
2023-05-14T15:00:47.176Z,21.80
2023-05-14T15:03:14.392Z,21.50
2023-05-14T15:05:40.697Z,21.70
2023-05-14T15:08:06.901Z,21.60
2023-05-14T15:10:37.062Z,21.50
2023-05-14T15:13:04.380Z,21.30
2023-05-14T15:15:31.863Z,21.30
2023-05-14T15:17:58.497Z,21.30
2023-05-14T15:20:24.987Z,21.20
2023-05-14T15:22:53.130Z,21.10
2023-05-14T15:25:19.955Z,21.10
2023-05-14T15:27:46.166Z,21.20
2023-05-14T15:30:13.366Z,21.20
2023-05-14T15:32:39.635Z,21.10
2023-05-14T15:35:06.628Z,21.00
2023-05-14T15:37:38.196Z,20.80
2023-05-14T15:40:08.369Z,20.80
2023-05-14T15:42:44.025Z,20.70
2023-05-14T15:45:11.662Z,20.60
2023-05-14T15:47:38.041Z,20.60
2023-05-14T15:50:05.498Z,20.60
2023-05-14T15:52:31.765Z,20.40
2023-05-14T15:54:59.845Z,20.40
2023-05-14T15:57:26.952Z,20.30
2023-05-14T15:59:53.398Z,20.30
2023-05-14T16:02:19.743Z,20.20
2023-05-14T16:04:46.118Z,20.00
2023-05-14T16:07:13.234Z,20.00
2023-05-14T16:09:39.446Z,19.90
2023-05-14T16:12:06.905Z,19.90
2023-05-14T16:14:33.922Z,19.80
2023-05-14T16:17:01.224Z,19.70
2023-05-14T16:19:27.948Z,19.70
2023-05-14T16:21:54.103Z,19.70
2023-05-14T16:24:20.241Z,19.60
2023-05-14T16:26:46.738Z,19.60
2023-05-14T16:29:12.959Z,19.50
2023-05-14T16:31:39.533Z,19.40
2023-05-14T16:34:05.933Z,19.30
2023-05-14T16:36:32.265Z,19.30
2023-05-14T16:39:07.264Z,19.10
2023-05-14T16:41:35.048Z,18.90
2023-05-14T16:44:01.350Z,18.80
2023-05-14T16:46:28.593Z,18.60
2023-05-14T16:48:55.362Z,18.60
2023-05-14T16:51:21.671Z,18.40
2023-05-14T16:53:47.929Z,18.10
2023-05-14T16:56:16.444Z,17.90
2023-05-14T16:58:43.042Z,17.90
2023-05-14T17:01:09.959Z,17.90
2023-05-14T17:03:36.852Z,17.90
2023-05-14T17:06:04.071Z,17.90
2023-05-14T17:08:32.848Z,17.90
2023-05-14T17:10:59.092Z,17.90
2023-05-14T17:13:25.324Z,17.70
2023-05-14T17:15:51.562Z,17.70
2023-05-14T17:18:17.827Z,17.50
2023-05-14T17:20:44.205Z,17.50
2023-05-14T17:23:10.635Z,17.40
2023-05-14T17:25:37.068Z,17.40
2023-05-14T17:28:03.383Z,17.30
2023-05-14T17:30:29.626Z,17.20
2023-05-14T17:32:56.157Z,17.20
2023-05-14T17:35:22.862Z,17.10
2023-05-14T17:37:49.760Z,17.00
2023-05-14T17:40:16.315Z,16.90
2023-05-14T17:45:27.220Z,16.90
2023-05-14T17:47:54.120Z,16.70
2023-05-14T17:50:22.073Z,16.60
2023-05-14T17:52:48.312Z,16.60
2023-05-14T17:55:16.889Z,16.50
2023-05-14T17:57:43.233Z,16.50
2023-05-14T18:00:10.962Z,16.50
2023-05-14T18:02:38.848Z,16.40
2023-05-14T18:05:05.698Z,16.30
2023-05-14T18:07:32.898Z,16.10
2023-05-14T18:09:59.320Z,16.10
2023-05-14T18:12:26.192Z,16.10
2023-05-14T18:14:52.563Z,16.10
2023-05-14T18:17:18.718Z,16.00
2023-05-14T18:19:45.467Z,16.00
2023-05-14T18:22:12.109Z,15.90
2023-05-14T18:24:38.513Z,15.90
2023-05-14T18:27:05.584Z,16.00
2023-05-14T18:29:31.763Z,16.10
2023-05-14T18:31:58.035Z,16.00
2023-05-14T18:34:24.315Z,15.90
2023-05-14T18:36:50.613Z,15.80
2023-05-14T18:39:17.347Z,15.70
2023-05-14T18:41:43.623Z,15.80
2023-05-14T18:44:09.977Z,15.70
2023-05-14T18:46:37.095Z,15.70
2023-05-14T18:49:03.384Z,15.80
2023-05-14T18:51:31.838Z,15.80
2023-05-14T18:53:58.577Z,15.70
2023-05-14T18:56:25.192Z,15.80
2023-05-14T18:58:52.779Z,15.70
2023-05-14T19:01:21.637Z,15.60
2023-05-14T19:03:48.036Z,15.60
2023-05-14T19:06:14.408Z,15.50
2023-05-14T19:08:40.842Z,15.40
2023-05-14T19:11:07.097Z,16.80
2023-05-14T19:13:33.365Z,15.60
2023-05-14T19:16:00.040Z,15.50
2023-05-14T19:18:26.426Z,15.40
2023-05-14T19:20:52.650Z,15.30
2023-05-14T19:23:18.847Z,15.30
2023-05-14T19:25:45.751Z,15.30
2023-05-14T19:28:12.078Z,15.30
2023-05-14T19:30:38.373Z,15.30
2023-05-14T19:33:04.746Z,15.20
2023-05-14T19:35:31.408Z,15.10
2023-05-14T19:37:57.910Z,15.00
2023-05-14T19:40:24.121Z,14.80
2023-05-14T19:42:50.464Z,14.70
2023-05-14T19:45:17.931Z,14.60
2023-05-14T19:47:44.263Z,14.30
2023-05-14T19:50:10.731Z,14.20
2023-05-14T19:52:36.980Z,14.10
2023-05-14T19:55:03.582Z,14.00
2023-05-14T19:57:30.072Z,14.00
2023-05-14T19:59:56.311Z,13.90
2023-05-14T20:02:22.698Z,13.90
2023-05-14T20:04:48.998Z,13.80
2023-05-14T20:07:15.461Z,13.80
2023-05-14T20:09:41.831Z,13.80
2023-05-14T20:12:08.789Z,13.70
2023-05-14T20:14:35.217Z,15.50
2023-05-14T20:17:01.755Z,13.70
2023-05-14T20:19:27.998Z,13.70
2023-05-14T20:21:55.638Z,13.70
2023-05-14T20:24:22.196Z,13.70
2023-05-14T20:26:48.441Z,13.70
2023-05-14T20:29:14.769Z,13.70
2023-05-14T20:31:40.982Z,13.70
2023-05-14T20:34:07.582Z,13.60
2023-05-14T20:36:34.109Z,13.40
2023-05-14T20:39:00.322Z,13.40
2023-05-14T20:41:26.569Z,13.40
2023-05-14T20:43:52.762Z,13.50
2023-05-14T20:46:19.215Z,13.40
2023-05-14T20:48:47.435Z,13.40
2023-05-14T20:51:14.468Z,13.40
2023-05-14T20:53:41.152Z,13.50
2023-05-14T20:56:08.474Z,13.50
2023-05-14T20:58:34.787Z,13.50
2023-05-14T21:01:01.150Z,13.40
2023-05-14T21:03:27.709Z,13.30
2023-05-14T21:05:55.375Z,13.30
2023-05-14T21:08:22.141Z,13.20
2023-05-14T21:10:48.601Z,13.20
2023-05-14T21:13:14.906Z,13.20
2023-05-14T21:15:41.114Z,13.10
2023-05-14T21:18:07.387Z,13.10
2023-05-14T21:20:33.699Z,13.00
2023-05-14T21:23:00.278Z,12.90
2023-05-14T21:25:26.794Z,12.90
2023-05-14T21:27:53.290Z,12.80
2023-05-14T21:30:19.940Z,12.80
2023-05-14T21:32:46.218Z,12.80
2023-05-14T21:35:12.517Z,12.70
2023-05-14T21:37:39.203Z,12.60
2023-05-14T21:40:11.400Z,12.60
2023-05-14T21:42:38.829Z,12.50
2023-05-14T21:45:05.894Z,12.60
2023-05-14T21:47:33.283Z,12.50
2023-05-14T21:50:00.129Z,12.10
2023-05-14T21:52:26.411Z,12.50
2023-05-14T21:54:52.528Z,12.50
2023-05-14T21:57:19.240Z,12.40
2023-05-14T21:59:45.693Z,12.40
2023-05-14T22:02:12.135Z,12.40
2023-05-14T22:04:38.879Z,12.40
2023-05-14T22:07:05.473Z,12.30
2023-05-14T22:09:31.734Z,12.40
2023-05-14T22:11:58.118Z,12.40
2023-05-14T22:14:25.987Z,12.30
2023-05-14T22:16:52.195Z,12.30
2023-05-14T22:19:18.344Z,12.30
2023-05-14T22:21:44.664Z,12.30
2023-05-14T22:24:10.863Z,12.20
2023-05-14T22:26:37.033Z,12.20
2023-05-14T22:29:03.186Z,12.20
2023-05-14T22:31:29.527Z,12.20
2023-05-14T22:33:55.714Z,12.10
2023-05-14T22:36:22.190Z,12.20
2023-05-14T22:38:48.294Z,12.10
2023-05-14T22:41:16.790Z,12.10
2023-05-14T22:43:42.936Z,12.10
2023-05-14T22:46:09.158Z,12.10
2023-05-14T22:48:35.325Z,12.10
2023-05-14T22:51:01.462Z,12.10
2023-05-14T22:53:27.623Z,12.10
2023-05-14T22:55:53.781Z,12.10
2023-05-14T22:58:19.958Z,12.00
2023-05-14T23:00:46.225Z,12.00
2023-05-14T23:03:12.473Z,12.10
2023-05-14T23:05:38.761Z,12.10
2023-05-14T23:08:05.354Z,12.10
2023-05-14T23:10:31.755Z,12.00
2023-05-14T23:12:57.907Z,12.00
2023-05-14T23:15:24.385Z,12.00
2023-05-14T23:17:50.783Z,12.00
2023-05-14T23:20:17.073Z,12.00
2023-05-14T23:22:43.189Z,12.00
2023-05-14T23:25:09.443Z,12.00
2023-05-14T23:27:35.643Z,11.90
2023-05-14T23:30:03.069Z,11.90
2023-05-14T23:32:29.301Z,11.90
2023-05-14T23:34:55.651Z,11.90
2023-05-14T23:37:22.178Z,12.00
2023-05-14T23:39:48.388Z,12.00
2023-05-14T23:42:14.642Z,11.90
2023-05-14T23:44:40.830Z,11.90
2023-05-14T23:47:08.047Z,11.90
2023-05-14T23:49:34.821Z,11.90
2023-05-14T23:52:01.561Z,11.90
2023-05-14T23:54:27.909Z,11.90
2023-05-14T23:56:54.087Z,11.90
2023-05-14T23:59:20.192Z,11.90
